Time;durP1;ratioP1;P1;durP2;ratioP2;P2;SDS_P1;SDS_P2;PMS_P1;PMS_P2;Temp;Humidity;BMP_temperature;BMP_pressure;BME280_temperature;BME280_humidity;BME280_pressure;Samples;Min_cycle;Max_cycle;Signal;HPM_P1;HPM_P2
2023/10/23 00:00:52;;;;;;;4.22;2.80;;;;;;;9.65;100.00;99597.13;5035162;28;20044;-73
2023/10/23 00:03:18;;;;;;;5.32;2.65;;;;;;;9.65;100.00;99594.44;5001409;28;20037;-73
2023/10/23 00:05:43;;;;;;;5.32;3.03;;;;;;;9.66;100.00;99597.97;5034028;28;20034;-72
2023/10/23 00:08:09;;;;;;;3.83;3.00;;;;;;;9.63;100.00;99590.28;5033708;28;20124;-73
2023/10/23 00:10:35;;;;;;;4.70;2.78;;;;;;;9.62;100.00;99589.47;5017389;28;20144;-72
2023/10/23 00:13:00;;;;;;;5.45;3.50;;;;;;;9.64;100.00;99586.59;5035083;28;20034;-73
2023/10/23 00:15:26;;;;;;;8.13;3.80;;;;;;;9.60;100.00;99593.38;5033948;28;20120;-73
2023/10/23 00:17:52;;;;;;;6.82;3.65;;;;;;;9.60;100.00;99591.53;5017315;28;20034;-73
2023/10/23 00:20:17;;;;;;;10.07;4.70;;;;;;;9.57;100.00;99586.56;5017165;28;20494;-73
2023/10/23 00:22:43;;;;;;;8.35;5.05;;;;;;;9.62;100.00;99578.75;5033789;28;20454;-73
2023/10/23 00:25:08;;;;;;;7.93;4.57;;;;;;;9.60;100.00;99569.22;5033296;28;20049;-73
2023/10/23 00:27:34;;;;;;;8.55;3.88;;;;;;;9.60;100.00;99572.72;5017530;28;20039;-73
2023/10/23 00:30:00;;;;;;;9.30;4.53;;;;;;;9.57;100.00;99575.81;5033502;28;20449;-73
2023/10/23 00:32:26;;;;;;;8.73;4.32;;;;;;;9.55;100.00;99572.53;5000921;28;20504;-73
2023/10/23 00:34:52;;;;;;;10.77;4.35;;;;;;;9.56;100.00;99571.50;5033452;28;20033;-73
2023/10/23 00:37:17;;;;;;;7.75;3.70;;;;;;;9.54;100.00;99562.81;5016936;28;20091;-73
2023/10/23 00:39:43;;;;;;;9.85;3.95;;;;;;;9.57;100.00;99570.44;5033031;28;20036;-73
2023/10/23 00:42:08;;;;;;;8.80;4.18;;;;;;;9.53;100.00;99560.34;5033603;28;20035;-73
2023/10/23 00:44:34;;;;;;;7.85;3.88;;;;;;;9.58;100.00;99572.13;5016878;28;20029;-74
2023/10/23 00:47:00;;;;;;;8.48;5.03;;;;;;;9.58;100.00;99574.81;5032992;28;20030;-73
2023/10/23 00:49:25;;;;;;;5.13;2.90;;;;;;;9.62;100.00;99594.84;5016775;28;20463;-73
2023/10/23 00:51:51;;;;;;;8.63;2.95;;;;;;;9.61;100.00;99577.09;5000622;28;20037;-73
2023/10/23 00:54:17;;;;;;;3.28;2.20;;;;;;;9.70;100.00;99585.81;5000690;28;20107;-73
2023/10/23 00:56:43;;;;;;;2.67;1.45;;;;;;;9.77;100.00;99612.69;5016204;28;20034;-73
2023/10/23 00:59:09;;;;;;;2.70;1.60;;;;;;;9.96;100.00;99611.94;5016347;28;20390;-73
2023/10/23 01:01:35;;;;;;;3.80;1.55;;;;;;;10.04;100.00;99611.78;5016326;28;20479;-73
2023/10/23 01:04:01;;;;;;;1.65;1.10;;;;;;;10.10;100.00;99612.81;5000087;28;20055;-73
2023/10/23 01:06:28;;;;;;;4.35;1.50;;;;;;;10.11;100.00;99609.94;5000386;28;20087;-73
2023/10/23 01:08:54;;;;;;;4.57;1.40;;;;;;;10.10;100.00;99602.91;4999584;28;20493;-73
2023/10/23 01:11:19;;;;;;;2.55;1.40;;;;;;;10.04;100.00;99587.59;5016387;28;20025;-73
2023/10/23 01:13:45;;;;;;;3.65;1.48;;;;;;;9.86;100.00;99577.41;5000235;28;20034;-73
2023/10/23 01:16:10;;;;;;;2.38;1.15;;;;;;;9.83;100.00;99591.22;5016415;28;20357;-73
2023/10/23 01:18:36;;;;;;;1.48;1.10;;;;;;;9.73;100.00;99584.56;5016071;28;20112;-73
2023/10/23 01:21:02;;;;;;;1.27;0.95;;;;;;;9.67;100.00;99587.03;5000189;28;20387;-73
2023/10/23 01:23:28;;;;;;;2.67;0.70;;;;;;;9.60;100.00;99586.16;5016484;28;20476;-73
2023/10/23 01:25:54;;;;;;;0.40;0.40;;;;;;;9.55;100.00;99580.59;5032596;28;20087;-74
2023/10/23 01:28:20;;;;;;;0.30;0.30;;;;;;;9.50;100.00;99582.16;5032392;28;20029;-73
2023/10/23 01:30:45;;;;;;;0.40;0.40;;;;;;;9.48;100.00;99582.38;5015903;28;20431;-73
2023/10/23 01:33:11;;;;;;;0.32;0.32;;;;;;;9.47;100.00;99580.72;5016388;28;20455;-73
2023/10/23 01:35:37;;;;;;;0.50;0.50;;;;;;;9.43;100.00;99579.47;5033962;28;20021;-73
2023/10/23 01:38:02;;;;;;;0.40;0.40;;;;;;;9.46;100.00;99589.78;5015625;28;20038;-73
2023/10/23 01:40:28;;;;;;;0.40;0.40;;;;;;;9.45;100.00;99596.19;5032518;28;20532;-73
2023/10/23 01:42:54;;;;;;;0.30;0.30;;;;;;;9.43;100.00;99579.47;5016011;28;20026;-73
2023/10/23 01:45:20;;;;;;;0.40;0.40;;;;;;;9.44;100.00;99586.47;5016104;28;20068;-73
2023/10/23 01:47:45;;;;;;;0.40;0.40;;;;;;;9.41;100.00;99581.50;4999823;28;20065;-73
2023/10/23 01:50:11;;;;;;;0.40;0.40;;;;;;;9.35;100.00;99576.94;5015989;28;20029;-73
2023/10/23 01:52:37;;;;;;;0.38;0.38;;;;;;;9.34;100.00;99580.63;4999779;28;20040;-73
2023/10/23 01:55:03;;;;;;;0.40;0.40;;;;;;;9.29;100.00;99578.56;4999835;28;20033;-73
2023/10/23 01:57:31;;;;;;;0.30;0.30;;;;;;;9.29;100.00;99572.34;5000323;28;20037;-73
2023/10/23 02:00:04;;;;;;;0.35;0.35;;;;;;;9.28;100.00;99565.34;5016212;28;20352;-73
2023/10/23 02:02:31;;;;;;;0.32;0.32;;;;;;;9.24;100.00;99571.09;5032527;28;20037;-73
2023/10/23 02:04:56;;;;;;;0.30;0.30;;;;;;;9.19;100.00;99570.84;4999614;28;20037;-74
2023/10/23 02:07:22;;;;;;;0.30;0.30;;;;;;;9.19;100.00;99568.16;5016107;28;20053;-74
2023/10/23 02:09:48;;;;;;;0.40;0.40;;;;;;;9.19;100.00;99576.22;5036161;28;20034;-74
2023/10/23 02:12:14;;;;;;;0.40;0.40;;;;;;;9.19;100.00;99573.53;5003541;28;20369;-73
2023/10/23 02:14:39;;;;;;;0.40;0.40;;;;;;;9.19;100.00;99573.53;5019566;28;20126;-74
2023/10/23 02:17:05;;;;;;;0.30;0.30;;;;;;;9.19;100.00;99567.34;5037297;28;20036;-74
2023/10/23 02:19:30;;;;;;;0.30;0.30;;;;;;;9.20;100.00;99569.81;5035968;28;20052;-73
2023/10/23 02:21:56;;;;;;;0.32;0.32;;;;;;;9.20;100.00;99569.81;5003369;28;20045;-73
2023/10/23 02:24:22;;;;;;;0.30;0.30;;;;;;;9.21;100.00;99573.34;5037631;28;20040;-73
2023/10/23 02:26:48;;;;;;;0.40;0.40;;;;;;;9.23;100.00;99574.81;5019659;28;20124;-73
2023/10/23 02:29:13;;;;;;;0.30;0.30;;;;;;;9.27;100.00;99585.97;5035545;28;20101;-73
2023/10/23 02:31:39;;;;;;;0.40;0.40;;;;;;;9.28;100.00;99579.56;5019544;28;20120;-73
2023/10/23 02:34:05;;;;;;;0.30;0.30;;;;;;;9.32;100.00;99585.38;5035765;28;20045;-73
2023/10/23 02:36:31;;;;;;;0.40;0.40;;;;;;;9.30;100.00;99574.84;5003137;28;20044;-73
2023/10/23 02:38:57;;;;;;;0.40;0.40;;;;;;;9.33;100.00;99571.75;5019333;28;20120;-74
2023/10/23 02:41:22;;;;;;;0.40;0.40;;;;;;;9.37;100.00;99572.22;5019427;28;20112;-73
2023/10/23 02:43:49;;;;;;;0.40;0.40;;;;;;;9.37;100.00;99569.53;5019219;28;20132;-73
2023/10/23 02:46:15;;;;;;;0.30;0.30;;;;;;;9.43;100.00;99571.41;5019347;28;20033;-73
2023/10/23 02:48:41;;;;;;;0.30;0.30;;;;;;;9.46;100.00;99565.66;5035180;28;20033;-74
2023/10/23 02:51:06;;;;;;;0.30;0.30;;;;;;;9.47;100.00;99559.25;5002751;28;20387;-74
2023/10/23 02:53:32;;;;;;;0.30;0.30;;;;;;;9.49;100.00;99553.69;5019154;28;20128;-73
2023/10/23 02:55:57;;;;;;;0.30;0.30;;;;;;;9.48;100.00;99549.38;5019076;28;20033;-74
2023/10/23 02:58:23;;;;;;;0.30;0.30;;;;;;;9.52;100.00;99545.25;5019069;28;20037;-74
2023/10/23 03:00:49;;;;;;;0.40;0.40;;;;;;;9.51;100.00;99549.78;5018963;28;20468;-74
2023/10/23 03:03:14;;;;;;;0.30;0.30;;;;;;;9.54;100.00;99556.63;5034918;28;20025;-74
2023/10/23 03:05:40;;;;;;;0.40;0.40;;;;;;;9.55;100.00;99556.44;5035188;28;20120;-74
2023/10/23 03:08:06;;;;;;;0.30;0.30;;;;;;;9.57;100.00;99554.34;5018900;28;20041;-73
2023/10/23 03:10:32;;;;;;;0.40;0.40;;;;;;;9.56;100.00;99544.66;5002199;28;20488;-74
2023/10/23 03:12:57;;;;;;;0.40;0.40;;;;;;;9.59;100.00;99552.31;5002447;28;20041;-73
2023/10/23 03:15:23;;;;;;;0.40;0.40;;;;;;;9.57;100.00;99543.63;5034739;28;20030;-73
2023/10/23 03:17:49;;;;;;;0.40;0.40;;;;;;;9.61;100.00;99552.13;5018679;28;20083;-73
2023/10/23 03:20:15;;;;;;;0.40;0.40;;;;;;;9.63;100.00;99550.03;5001197;28;20041;-73
2023/10/23 03:22:41;;;;;;;0.30;0.30;;;;;;;9.63;100.00;99553.56;5034588;28;20034;-74
2023/10/23 03:25:08;;;;;;;0.38;0.38;;;;;;;9.64;100.00;99549.84;5002445;28;20490;-74
2023/10/23 03:27:34;;;;;;;0.38;0.38;;;;;;;9.63;100.00;99545.53;5002227;28;20034;-74
2023/10/23 03:29:59;;;;;;;0.40;0.40;;;;;;;9.62;100.00;99543.84;5017916;28;20033;-74
2023/10/23 03:32:25;;;;;;;0.30;0.30;;;;;;;9.61;100.00;99544.06;5002085;28;20360;-74
2023/10/23 03:34:51;;;;;;;0.32;0.32;;;;;;;9.59;100.00;99540.75;5018427;28;20087;-74
2023/10/23 03:37:16;;;;;;;0.40;0.40;;;;;;;9.56;100.00;99533.09;5018236;28;20051;-74
2023/10/23 03:39:42;;;;;;;0.40;0.40;;;;;;;9.57;100.00;99540.94;5001395;28;20060;-74
2023/10/23 03:42:08;;;;;;;0.40;0.40;;;;;;;9.57;100.00;99532.06;5001912;28;20095;-74
2023/10/23 03:44:34;;;;;;;0.30;0.30;;;;;;;9.56;100.00;99531.25;5018113;28;20029;-74
2023/10/23 03:47:00;;;;;;;0.40;0.40;;;;;;;9.57;100.00;99526.69;5034548;28;20044;-74
2023/10/23 03:49:27;;;;;;;0.40;0.40;;;;;;;9.57;100.00;99530.19;5034001;28;20030;-74
2023/10/23 03:51:53;;;;;;;0.40;0.40;;;;;;;9.57;100.00;99529.38;5001350;28;20387;-74
2023/10/23 03:54:19;;;;;;;0.40;0.40;;;;;;;9.56;100.00;99522.38;5001556;28;20052;-74
2023/10/23 03:56:44;;;;;;;0.30;0.30;;;;;;;9.55;100.00;99528.75;5034118;28;20044;-74
2023/10/23 03:59:10;;;;;;;0.40;0.40;;;;;;;9.55;100.00;99518.84;5017845;28;20033;-74
2023/10/23 04:01:35;;;;;;;0.40;0.40;;;;;;;9.53;100.00;99526.28;5017527;28;20040;-74
2023/10/23 04:04:01;;;;;;;0.30;0.30;;;;;;;9.54;100.00;99525.22;5017515;28;20129;-73
2023/10/23 04:06:27;;;;;;;0.40;0.40;;;;;;;9.51;100.00;99516.75;5017702;28;20053;-74
2023/10/23 04:08:52;;;;;;;0.40;0.40;;;;;;;9.50;100.00;99520.47;5017282;28;20045;-75
2023/10/23 04:11:18;;;;;;;0.38;0.38;;;;;;;9.50;100.00;99521.31;5035169;28;20029;-74
2023/10/23 04:13:44;;;;;;;0.30;0.30;;;;;;;9.49;100.00;99514.28;5001188;28;20040;-74
2023/10/23 04:16:09;;;;;;;0.40;0.40;;;;;;;9.48;100.00;99515.31;5017391;28;20103;-74
2023/10/23 04:18:35;;;;;;;0.32;0.32;;;;;;;9.48;100.00;99522.53;5001192;28;20037;-74
2023/10/23 04:21:11;;;;;;;0.30;0.30;;;;;;;9.46;100.00;99518.19;5033430;28;20040;-74
2023/10/23 04:23:38;;;;;;;0.30;0.30;;;;;;;9.44;100.00;99519.41;5033836;28;20041;-74
2023/10/23 04:26:04;;;;;;;0.35;0.35;;;;;;;9.40;100.00;99515.47;5017406;28;20033;-74
2023/10/23 04:28:34;;;;;;;0.40;0.40;;;;;;;9.36;100.00;99517.72;5033241;28;20080;-74
2023/10/23 04:30:59;;;;;;;0.40;0.40;;;;;;;9.31;100.00;99509.41;5033488;28;20115;-75
2023/10/23 04:33:28;;;;;;;0.30;0.30;;;;;;;9.32;100.00;99504.91;5017265;28;20061;-74
2023/10/23 04:35:55;;;;;;;0.40;0.40;;;;;;;9.32;100.00;99500.38;5033493;28;20043;-74
2023/10/23 04:38:21;;;;;;;0.40;0.40;;;;;;;9.28;100.00;99501.78;5033188;28;20111;-74
2023/10/23 04:40:48;;;;;;;0.40;0.40;;;;;;;9.25;100.00;99500.31;5033548;28;20476;-74
2023/10/23 04:43:13;;;;;;;0.30;0.30;;;;;;;9.24;100.00;99512.09;5017193;28;20033;-74
2023/10/23 04:45:39;;;;;;;0.30;0.30;;;;;;;9.25;100.00;99513.72;5016936;28;20506;-74
2023/10/23 04:48:06;;;;;;;0.30;0.30;;;;;;;9.25;100.00;99505.69;5016994;28;20037;-74
2023/10/23 04:50:32;;;;;;;0.40;0.40;;;;;;;9.25;100.00;99504.84;5017040;28;20029;-74
2023/10/23 04:53:01;;;;;;;0.40;0.40;;;;;;;9.23;100.00;99505.06;5000546;28;20091;-73
2023/10/23 04:55:40;;;;;;;0.38;0.38;;;;;;;9.23;100.00;99505.06;5016870;28;20029;-74
2023/10/23 04:58:07;;;;;;;0.40;0.40;;;;;;;9.24;100.00;99503.22;5017236;28;20033;-74
2023/10/23 05:00:37;;;;;;;0.30;0.30;;;;;;;9.27;100.00;99494.78;5016538;28;20132;-73
2023/10/23 05:03:03;;;;;;;0.40;0.40;;;;;;;9.37;100.00;99500.59;5000445;28;20102;-74
2023/10/23 05:05:32;;;;;;;0.40;0.40;;;;;;;9.43;100.00;99496.28;5033193;28;20033;-74
2023/10/23 05:07:58;;;;;;;0.40;0.40;;;;;;;9.46;100.00;99494.03;5033237;28;20033;-74
2023/10/23 05:10:24;;;;;;;0.30;0.30;;;;;;;9.55;100.00;99492.03;5016416;28;20518;-74
2023/10/23 05:12:50;;;;;;;0.40;0.40;;;;;;;9.61;100.00;99490.38;5000267;28;20033;-74
2023/10/23 05:15:16;;;;;;;0.40;0.40;;;;;;;9.65;100.00;99494.31;5016584;28;20055;-74
2023/10/23 05:17:41;;;;;;;0.40;0.40;;;;;;;9.65;100.00;99489.75;5016571;28;20099;-74
2023/10/23 05:20:07;;;;;;;0.38;0.38;;;;;;;9.65;100.00;99484.41;5033087;28;20033;-74
2023/10/23 05:22:33;;;;;;;0.40;0.40;;;;;;;9.62;100.00;99487.50;5016171;28;20036;-74
2023/10/23 05:24:59;;;;;;;0.40;0.40;;;;;;;9.58;100.00;99478.19;5032459;28;20029;-74
2023/10/23 05:27:25;;;;;;;0.30;0.30;;;;;;;9.62;100.00;99487.50;5016386;28;20053;-74
2023/10/23 05:29:50;;;;;;;0.40;0.40;;;;;;;9.64;100.00;99490.00;5032568;28;20032;-74
2023/10/23 05:32:16;;;;;;;0.40;0.40;;;;;;;9.63;100.00;99481.13;5000026;28;20468;-74
2023/10/23 05:34:45;;;;;;;0.35;0.35;;;;;;;9.58;100.00;99477.34;4999967;28;20075;-74
2023/10/23 05:37:11;;;;;;;0.40;0.40;;;;;;;9.61;100.00;99491.22;5016356;28;20067;-74
2023/10/23 05:39:37;;;;;;;0.32;0.32;;;;;;;9.61;100.00;99474.28;5032186;28;20136;-74
2023/10/23 05:42:03;;;;;;;0.50;0.50;;;;;;;9.62;100.00;99466.03;5016188;28;20136;-74
2023/10/23 05:44:29;;;;;;;0.30;0.30;;;;;;;9.66;100.00;99472.66;5015943;28;20128;-74
2023/10/23 05:46:54;;;;;;;0.40;0.40;;;;;;;9.64;100.00;99477.38;5016128;28;20429;-74
2023/10/23 05:49:20;;;;;;;0.40;0.40;;;;;;;9.64;100.00;99471.19;5016081;28;20040;-74
2023/10/23 05:51:45;;;;;;;0.32;0.32;;;;;;;9.64;100.00;99468.50;5032722;28;20037;-74
2023/10/23 05:54:11;;;;;;;0.40;0.40;;;;;;;9.63;100.00;99465.00;5016101;28;20033;-74
2023/10/23 05:56:37;;;;;;;0.40;0.40;;;;;;;9.65;100.00;99462.94;5015707;28;20083;-74
2023/10/23 05:59:03;;;;;;;0.40;0.40;;;;;;;9.61;100.00;99464.38;5032329;28;20495;-75
2023/10/23 06:01:29;;;;;;;0.40;0.40;;;;;;;9.62;100.00;99465.19;5032514;28;20034;-74
2023/10/23 06:03:54;;;;;;;0.40;0.40;;;;;;;9.63;100.00;99464.16;5032067;28;20594;-75
2023/10/23 06:06:20;;;;;;;0.40;0.40;;;;;;;9.67;100.00;99463.56;5016031;28;20033;-74
2023/10/23 06:08:46;;;;;;;0.45;0.45;;;;;;;9.67;100.00;99462.75;5032062;28;20074;-74
2023/10/23 06:11:12;;;;;;;0.40;0.40;;;;;;;9.71;100.00;99463.16;5032195;28;20060;-75
2023/10/23 06:13:39;;;;;;;0.30;0.30;;;;;;;9.68;100.00;99459.00;5032261;28;20476;-75
2023/10/23 06:16:04;;;;;;;0.40;0.40;;;;;;;9.71;100.00;99455.09;4999537;28;20049;-74
2023/10/23 06:18:34;;;;;;;0.40;0.40;;;;;;;9.75;100.00;99453.69;5032333;28;20426;-74
2023/10/23 06:21:03;;;;;;;0.30;0.30;;;;;;;9.78;100.00;99462.16;5015964;28;20033;-75
2023/10/23 06:23:37;;;;;;;0.40;0.40;;;;;;;9.76;100.00;99460.69;5015861;28;20029;-74
2023/10/23 06:26:04;;;;;;;0.30;0.30;;;;;;;9.79;100.00;99460.28;5032378;28;20037;-74
2023/10/23 06:28:30;;;;;;;0.40;0.40;;;;;;;9.78;100.00;99464.81;5015736;28;20121;-74
2023/10/23 06:30:55;;;;;;;0.40;0.40;;;;;;;9.80;100.00;99472.69;5031898;28;20029;-74
2023/10/23 06:33:21;;;;;;;0.40;0.40;;;;;;;9.78;100.00;99474.75;5015730;28;20036;-75
2023/10/23 06:35:57;;;;;;;0.40;0.40;;;;;;;9.80;100.00;99473.50;5031769;28;20079;-75
2023/10/23 06:38:22;;;;;;;0.30;0.30;;;;;;;9.80;100.00;99470.00;5033797;28;20033;-74
2023/10/23 06:40:48;;;;;;;0.35;0.35;;;;;;;9.79;100.00;99474.56;4999164;28;20456;-74
2023/10/23 06:43:14;;;;;;;0.30;0.30;;;;;;;9.75;100.00;99467.09;4999389;28;20048;-75
2023/10/23 06:45:39;;;;;;;0.38;0.38;;;;;;;9.74;100.00;99471.66;5015158;28;20029;-75
2023/10/23 06:48:05;;;;;;;0.30;0.30;;;;;;;9.79;100.00;99476.38;5030305;28;20076;-75
2023/10/23 06:50:30;;;;;;;0.40;0.40;;;;;;;9.77;100.00;99479.28;5013929;28;20021;-75
2023/10/23 06:52:56;;;;;;;0.40;0.40;;;;;;;9.80;100.00;99478.06;4999117;28;20116;-75
2023/10/23 06:55:24;;;;;;;0.40;0.40;;;;;;;9.81;100.00;99475.16;5000788;28;20079;-75
2023/10/23 06:57:50;;;;;;;0.40;0.40;;;;;;;9.82;100.00;99473.31;5019323;28;20040;-75
2023/10/23 07:00:16;;;;;;;0.40;0.40;;;;;;;9.82;100.00;99471.47;5034933;28;20467;-75
2023/10/23 07:02:41;;;;;;;0.30;0.30;;;;;;;9.81;100.00;99469.78;5018769;28;20036;-75
2023/10/23 07:05:07;;;;;;;0.40;0.40;;;;;;;9.80;100.00;99478.06;5002319;28;20040;-75
2023/10/23 07:07:33;;;;;;;0.35;0.35;;;;;;;9.78;100.00;99478.25;5002587;28;20403;-75
2023/10/23 07:09:58;;;;;;;0.40;0.40;;;;;;;9.77;100.00;99473.94;5036222;28;20033;-75
2023/10/23 07:12:25;;;;;;;0.40;0.40;;;;;;;9.78;100.00;99475.56;5034703;28;20037;-75
2023/10/23 07:14:50;;;;;;;0.38;0.38;;;;;;;9.75;100.00;99475.16;5002343;28;20091;-75
2023/10/23 07:17:16;;;;;;;0.40;0.40;;;;;;;9.78;100.00;99483.63;5002364;28;20128;-75
2023/10/23 07:19:42;;;;;;;0.40;0.40;;;;;;;9.77;100.00;99473.94;5018787;28;20033;-75
2023/10/23 07:22:08;;;;;;;0.40;0.40;;;;;;;9.75;100.00;99469.78;5034650;28;20029;-75
2023/10/23 07:24:33;;;;;;;0.30;0.30;;;;;;;9.77;100.00;99478.47;5018672;28;20092;-75
2023/10/23 07:26:59;;;;;;;0.30;0.30;;;;;;;9.77;100.00;99481.16;5033918;28;20032;-76
2023/10/23 07:29:25;;;;;;;0.30;0.30;;;;;;;9.77;100.00;99486.53;5034691;28;20071;-75
2023/10/23 07:31:50;;;;;;;0.40;0.40;;;;;;;9.78;100.00;99483.63;5034434;28;20116;-75
2023/10/23 07:34:16;;;;;;;0.40;0.40;;;;;;;9.75;100.00;99480.53;5001798;28;20460;-75
2023/10/23 07:36:41;;;;;;;0.40;0.40;;;;;;;9.79;100.00;99476.38;5002026;28;20128;-74
2023/10/23 07:39:08;;;;;;;0.40;0.40;;;;;;;9.81;100.00;99485.91;5018171;28;20049;-74
2023/10/23 07:41:34;;;;;;;0.40;0.40;;;;;;;9.82;100.00;99489.44;5034203;28;20475;-74
2023/10/23 07:43:59;;;;;;;0.40;0.40;;;;;;;9.81;100.00;99479.72;5017788;28;20079;-74
2023/10/23 07:46:25;;;;;;;0.40;0.40;;;;;;;9.80;100.00;99480.75;5034279;28;20049;-75
2023/10/23 07:48:51;;;;;;;0.40;0.40;;;;;;;9.81;100.00;99479.72;5033968;28;20025;-75
2023/10/23 07:51:16;;;;;;;0.38;0.38;;;;;;;9.83;100.00;99485.72;5001629;28;20029;-75
2023/10/23 07:53:42;;;;;;;0.40;0.40;;;;;;;9.85;100.00;99483.66;5017531;28;20029;-75
2023/10/23 07:56:07;;;;;;;0.40;0.40;;;;;;;9.86;100.00;99496.84;5017875;28;20091;-75
2023/10/23 07:58:33;;;;;;;0.40;0.40;;;;;;;9.87;100.00;99501.22;5034465;28;20038;-75
2023/10/23 08:01:07;;;;;;;0.40;0.40;;;;;;;9.88;100.00;99493.97;5001501;28;20034;-75
2023/10/23 08:03:33;;;;;;;;;;;;;;;9.87;100.00;99498.53;5018025;28;20109;-75
2023/10/23 08:06:00;;;;;;;0.40;0.40;;;;;;;9.86;100.00;99487.97;5033540;28;19909;-75
2023/10/23 08:08:26;;;;;;;0.30;0.30;;;;;;;9.83;100.00;99493.75;5034863;28;20108;-75
2023/10/23 08:10:53;;;;;;;0.38;0.38;;;;;;;9.82;100.00;99492.13;5017456;28;20033;-75
2023/10/23 08:13:18;;;;;;;0.40;0.40;;;;;;;9.84;100.00;99498.94;5033952;28;20025;-75
2023/10/23 08:15:44;;;;;;;0.40;0.40;;;;;;;9.85;100.00;99492.53;5017391;28;20025;-75
2023/10/23 08:18:10;;;;;;;0.40;0.40;;;;;;;9.87;100.00;99490.47;5000589;28;20472;-75
2023/10/23 08:20:35;;;;;;;0.30;0.30;;;;;;;9.88;100.00;99491.31;5033594;28;20033;-76
2023/10/23 08:23:01;;;;;;;0.32;0.32;;;;;;;9.90;100.00;99495.44;5033251;28;20408;-75
2023/10/23 08:25:26;;;;;;;0.40;0.40;;;;;;;9.90;100.00;99498.13;5033864;28;20037;-75
2023/10/23 08:27:52;;;;;;;0.30;0.30;;;;;;;9.96;100.00;99499.16;5034358;28;20033;-75
2023/10/23 08:30:18;;;;;;;0.40;0.40;;;;;;;9.96;100.00;99499.16;5015535;28;20383;-76
2023/10/23 08:32:44;;;;;;;0.30;0.30;;;;;;;9.97;100.00;99486.56;5032544;28;20029;-76
2023/10/23 08:35:09;;;;;;;0.40;0.40;;;;;;;10.01;100.00;99487.81;5016108;28;20033;-76
2023/10/23 08:37:35;;;;;;;0.40;0.40;;;;;;;10.02;100.00;99482.22;5016524;28;20029;-75
2023/10/23 08:40:06;;;;;;;0.40;0.40;;;;;;;10.04;100.00;99490.91;5034596;28;20048;-75
2023/10/23 08:42:34;;;;;;;0.40;0.40;;;;;;;10.03;100.00;99485.75;5017567;28;20033;-75
2023/10/23 08:45:00;;;;;;;0.40;0.40;;;;;;;10.07;100.00;99481.63;5017033;28;20032;-75
2023/10/23 08:47:25;;;;;;;0.40;0.40;;;;;;;10.07;100.00;99479.75;5016788;28;20029;-75
2023/10/23 08:49:52;;;;;;;0.40;0.40;;;;;;;10.11;100.00;99486.41;5033164;28;20025;-75
2023/10/23 08:52:21;;;;;;;0.40;0.40;;;;;;;10.13;100.00;99491.56;5000704;28;20029;-75
2023/10/23 08:54:50;;;;;;;0.40;0.40;;;;;;;10.20;100.00;99489.72;5017233;28;20029;-76
2023/10/23 08:57:20;;;;;;;0.50;0.50;;;;;;;10.25;100.00;99473.00;5016823;28;20464;-75
2023/10/23 08:59:46;;;;;;;0.35;0.35;;;;;;;10.28;100.00;99484.16;5017186;28;20025;-75
2023/10/23 09:02:12;;;;;;;0.40;0.40;;;;;;;10.31;100.00;99485.63;5000392;28;20464;-75
2023/10/23 09:04:37;;;;;;;0.40;0.40;;;;;;;10.31;100.00;99480.25;5016668;28;20041;-75
2023/10/23 09:07:03;;;;;;;0.40;0.40;;;;;;;10.32;100.00;99476.56;5000086;28;20206;-75
2023/10/23 09:09:30;;;;;;;0.40;0.40;;;;;;;10.29;100.00;99472.41;5032978;28;20029;-75
2023/10/23 09:11:57;;;;;;;0.30;0.30;;;;;;;10.31;100.00;99481.06;5032909;28;20456;-76
2023/10/23 09:14:31;;;;;;;0.50;0.50;;;;;;;10.33;100.00;99487.06;5016458;28;20040;-75
2023/10/23 09:16:59;;;;;;;0.30;0.30;;;;;;;10.34;100.00;99487.91;5017404;28;20045;-74
2023/10/23 09:19:36;;;;;;;0.40;0.40;;;;;;;10.34;100.00;99482.53;5032264;28;20442;-75
2023/10/23 09:22:06;;;;;;;0.50;0.50;;;;;;;10.40;100.00;99475.50;5000925;28;20044;-75
2023/10/23 09:24:32;;;;;;;0.40;0.40;;;;;;;10.44;100.00;99477.56;5000596;28;20128;-74
2023/10/23 09:26:58;;;;;;;0.40;0.40;;;;;;;10.44;100.00;99480.25;5032702;28;20076;-75
2023/10/23 09:29:25;;;;;;;0.40;0.40;;;;;;;10.50;100.00;99473.22;5015934;28;20400;-75
2023/10/23 09:31:51;;;;;;;0.50;0.50;;;;;;;10.55;100.00;99466.19;5016228;28;20041;-75
2023/10/23 09:34:21;;;;;;;0.40;0.40;;;;;;;10.56;100.00;99472.41;5015866;28;20479;-75
2023/10/23 09:36:50;;;;;;;0.40;0.40;;;;;;;10.60;100.00;99462.06;5000458;28;20116;-74
2023/10/23 09:39:16;;;;;;;0.40;0.40;;;;;;;10.62;100.00;99465.38;5015741;28;20034;-75
2023/10/23 09:41:44;;;;;;;0.45;0.45;;;;;;;10.64;100.00;99460.59;5016003;28;20045;-74
2023/10/23 09:44:10;;;;;;;0.40;0.40;;;;;;;10.69;100.00;99471.56;5033644;28;20164;-75
2023/10/23 09:46:36;;;;;;;0.43;0.43;;;;;;;10.66;100.00;99456.66;4999843;28;20391;-75
2023/10/23 09:49:03;;;;;;;0.40;0.40;;;;;;;10.71;100.00;99462.25;4999644;28;20120;-75
2023/10/23 09:51:39;;;;;;;0.40;0.40;;;;;;;10.71;100.00;99458.75;4999835;28;20111;-74
2023/10/23 09:54:21;;;;;;;0.40;0.40;;;;;;;10.76;100.00;99458.94;5016175;28;20136;-74
2023/10/23 09:56:52;;;;;;;0.50;0.50;;;;;;;10.81;100.00;99458.31;5013834;28;20048;-75
2023/10/23 09:59:20;;;;;;;0.40;0.40;;;;;;;10.83;100.00;99462.47;4999882;28;20033;-75
2023/10/23 10:01:49;;;;;;;0.40;0.40;;;;;;;10.85;100.00;99446.94;5016508;28;20379;-75
2023/10/23 10:04:18;;;;;;;0.40;0.40;;;;;;;10.91;100.00;99454.16;5032384;28;20061;-75
2023/10/23 10:06:50;;;;;;;0.38;0.38;;;;;;;10.95;100.00;99439.25;5033634;28;20068;-75
2023/10/23 10:09:16;;;;;;;0.40;0.40;;;;;;;10.94;100.00;99429.53;4999637;28;20044;-75
2023/10/23 10:11:43;;;;;;;0.40;0.40;;;;;;;10.97;100.00;99437.19;5032262;28;20029;-75
2023/10/23 10:14:10;;;;;;;0.40;0.40;;;;;;;10.97;100.00;99439.88;5015629;28;20033;-75
2023/10/23 10:16:36;;;;;;;0.35;0.35;;;;;;;10.94;100.00;99431.41;5015540;28;20060;-75
2023/10/23 10:19:02;;;;;;;0.30;0.30;;;;;;;10.92;100.00;99434.28;5031923;28;20109;-75
2023/10/23 10:21:35;;;;;;;0.40;0.40;;;;;;;10.88;100.00;99432.25;5032213;28;20025;-74
2023/10/23 10:24:03;;;;;;;0.50;0.50;;;;;;;10.82;100.00;99428.53;4999928;28;20365;-75
2023/10/23 10:26:30;;;;;;;0.40;0.40;;;;;;;10.78;100.00;99430.00;5032120;28;20025;-75
2023/10/23 10:28:57;;;;;;;0.40;0.40;;;;;;;10.75;100.00;99427.72;5016188;28;20040;-75
2023/10/23 10:31:23;;;;;;;0.40;0.40;;;;;;;10.77;100.00;99431.03;5002827;28;20033;-75
2023/10/23 10:33:48;;;;;;;0.40;0.40;;;;;;;10.86;100.00;99428.94;5035666;28;20025;-75
2023/10/23 10:36:16;;;;;;;0.40;0.40;;;;;;;10.90;100.00;99432.84;5035481;28;20056;-75
2023/10/23 10:38:42;;;;;;;0.32;0.32;;;;;;;10.88;100.00;99432.25;5003468;28;20041;-75
2023/10/23 10:41:18;;;;;;;0.30;0.30;;;;;;;10.87;100.00;99442.16;5018987;28;20442;-75
2023/10/23 10:43:50;;;;;;;0.40;0.40;;;;;;;10.85;100.00;99436.19;5035250;28;20067;-75
2023/10/23 10:46:20;;;;;;;0.30;0.30;;;;;;;10.90;100.00;99433.72;5003842;28;20523;-75
2023/10/23 10:48:54;;;;;;;0.40;0.40;;;;;;;10.90;100.00;99431.00;5002337;28;20034;-75
2023/10/23 10:51:23;;;;;;;;;;;;;;;10.89;100.00;99434.72;5019550;28;20030;-75
2023/10/23 10:54:03;;;;;;;0.50;0.50;;;;;;;10.88;100.00;99433.09;5035631;28;20393;-75
2023/10/23 10:56:29;;;;;;;0.40;0.40;;;;;;;10.89;100.00;99429.34;5036921;28;20028;-75
2023/10/23 10:58:59;;;;;;;0.40;0.40;;;;;;;10.83;100.00;99421.31;5036484;28;20036;-75
2023/10/23 11:01:24;;;;;;;0.40;0.40;;;;;;;10.92;100.00;99433.47;5002658;28;20573;-75
2023/10/23 11:03:50;;;;;;;0.40;0.40;;;;;;;10.97;100.00;99436.38;5018842;28;20025;-75
2023/10/23 11:06:16;;;;;;;0.38;0.38;;;;;;;10.91;100.00;99429.16;5002554;28;20494;-75
2023/10/23 11:08:42;;;;;;;0.40;0.40;;;;;;;10.92;100.00;99434.28;5018631;28;20039;-75
2023/10/23 11:11:07;;;;;;;0.40;0.40;;;;;;;10.97;100.00;99431.81;5018551;28;20395;-75
2023/10/23 11:13:33;;;;;;;0.40;0.40;;;;;;;10.98;100.00;99420.03;5034837;28;20029;-75
2023/10/23 11:15:59;;;;;;;0.40;0.40;;;;;;;11.07;100.00;99419.78;5035050;28;20033;-75
2023/10/23 11:18:25;;;;;;;0.40;0.40;;;;;;;11.09;100.00;99413.16;5034664;28;20033;-75
2023/10/23 11:20:56;;;;;;;0.40;0.40;;;;;;;11.17;100.00;99412.94;5035015;28;20052;-75
2023/10/23 11:23:22;;;;;;;0.30;0.30;;;;;;;11.19;100.00;99401.94;5002257;28;20090;-75
2023/10/23 11:25:48;;;;;;;0.30;0.30;;;;;;;11.19;100.00;99397.41;5034310;28;20108;-75
2023/10/23 11:28:18;;;;;;;0.40;0.40;;;;;;;11.25;100.00;99406.47;5002175;28;20033;-75